ENSL

Sleipner A Platform Heliport

Norway
METAR ENSL 211320Z 29013KT 9999 BKN015 15/12 Q1012 W15/S3
Observed Flight Rules
Jul-21 @ 13:20 UTC (33 minutes ago) Marginal Visual Flight Rules
Wind Visibility Clouds
290° at 13 knots 10,000+ meters
  • Broken at 1,500' AGL
Temperatures Readings
Current 15°C / 59°F
Dewpoint 12°C / 54°F
Humidity 82%
Altimeter 29.88" Hg
Pressure 1012 hPa
Elevation 50
METAR ENSL 211320Z 29013KT 9999 BKN015 15/12 Q1012 W15/S3
Observed Flight Rules
Jul-21 @ 13:20 UTC
(33 minutes ago)
MVFR
Wind Visibility
290° at 13 knots 10,000+ meters
Clouds
  • Broken at 1,500' AGL
Temperature Dewpoint
15°C / 59°F 12°C / 54°F
Humidity Altimeter Pressure
82% 29.88" Hg 1012 hPa